sensor_id;sensor_type;location;lat;lon;timestamp;P1;durP1;ratioP1;P2;durP2;ratioP2
7817;SDS011;3954;52.624;9.212;2022-09-16T00:02:01;3.03;;;1.37;;
7817;SDS011;3954;52.624;9.212;2022-09-16T00:04:27;9.13;;;1.90;;
7817;SDS011;3954;52.624;9.212;2022-09-16T00:06:53;6.47;;;2.07;;
7817;SDS011;3954;52.624;9.212;2022-09-16T00:09:19;2.37;;;1.50;;
7817;SDS011;3954;52.624;9.212;2022-09-16T00:11:45;3.87;;;1.47;;
7817;SDS011;3954;52.624;9.212;2022-09-16T00:14:13;3.47;;;1.80;;
7817;SDS011;3954;52.624;9.212;2022-09-16T00:16:39;5.57;;;1.73;;
7817;SDS011;3954;52.624;9.212;2022-09-16T00:19:05;2.60;;;1.70;;
7817;SDS011;3954;52.624;9.212;2022-09-16T00:21:31;3.90;;;1.87;;
7817;SDS011;3954;52.624;9.212;2022-09-16T00:23:57;5.17;;;1.83;;
7817;SDS011;3954;52.624;9.212;2022-09-16T00:26:23;3.73;;;2.00;;
7817;SDS011;3954;52.624;9.212;2022-09-16T00:28:50;4.67;;;1.50;;
7817;SDS011;3954;52.624;9.212;2022-09-16T00:31:17;4.63;;;1.90;;
7817;SDS011;3954;52.624;9.212;2022-09-16T00:33:43;4.43;;;1.97;;
7817;SDS011;3954;52.624;9.212;2022-09-16T00:36:10;4.47;;;1.80;;
7817;SDS011;3954;52.624;9.212;2022-09-16T00:38:36;5.63;;;1.70;;
7817;SDS011;3954;52.624;9.212;2022-09-16T00:41:03;4.43;;;1.77;;
7817;SDS011;3954;52.624;9.212;2022-09-16T00:43:44;5.43;;;2.10;;
7817;SDS011;3954;52.624;9.212;2022-09-16T00:46:11;3.67;;;1.77;;
7817;SDS011;3954;52.624;9.212;2022-09-16T00:48:38;4.07;;;1.90;;
7817;SDS011;3954;52.624;9.212;2022-09-16T00:51:05;5.43;;;1.97;;
7817;SDS011;3954;52.624;9.212;2022-09-16T00:53:34;6.67;;;2.43;;
7817;SDS011;3954;52.624;9.212;2022-09-16T00:56:03;4.87;;;2.03;;
7817;SDS011;3954;52.624;9.212;2022-09-16T00:58:32;5.30;;;2.30;;
7817;SDS011;3954;52.624;9.212;2022-09-16T01:00:59;3.87;;;2.10;;
7817;SDS011;3954;52.624;9.212;2022-09-16T01:03:25;3.73;;;2.10;;
7817;SDS011;3954;52.624;9.212;2022-09-16T01:05:54;4.77;;;1.80;;
7817;SDS011;3954;52.624;9.212;2022-09-16T01:08:20;2.00;;;1.80;;
7817;SDS011;3954;52.624;9.212;2022-09-16T01:10:46;4.43;;;2.17;;
7817;SDS011;3954;52.624;9.212;2022-09-16T01:13:12;5.67;;;1.87;;
7817;SDS011;3954;52.624;9.212;2022-09-16T01:15:40;4.00;;;2.00;;
7817;SDS011;3954;52.624;9.212;2022-09-16T01:18:10;6.87;;;2.30;;
7817;SDS011;3954;52.624;9.212;2022-09-16T01:20:44;5.27;;;2.43;;
7817;SDS011;3954;52.624;9.212;2022-09-16T01:23:27;3.63;;;1.97;;
7817;SDS011;3954;52.624;9.212;2022-09-16T01:26:06;4.50;;;1.90;;
7817;SDS011;3954;52.624;9.212;2022-09-16T01:31:18;4.30;;;2.50;;
7817;SDS011;3954;52.624;9.212;2022-09-16T01:33:50;3.17;;;2.13;;
7817;SDS011;3954;52.624;9.212;2022-09-16T01:36:24;4.23;;;2.10;;
7817;SDS011;3954;52.624;9.212;2022-09-16T01:41:44;3.57;;;1.97;;
7817;SDS011;3954;52.624;9.212;2022-09-16T01:44:14;5.47;;;2.33;;
7817;SDS011;3954;52.624;9.212;2022-09-16T01:46:45;4.97;;;2.13;;
7817;SDS011;3954;52.624;9.212;2022-09-16T01:49:15;4.03;;;2.30;;
7817;SDS011;3954;52.624;9.212;2022-09-16T01:51:46;3.87;;;2.33;;
7817;SDS011;3954;52.624;9.212;2022-09-16T01:54:16;6.80;;;2.33;;
7817;SDS011;3954;52.624;9.212;2022-09-16T01:56:45;3.60;;;2.30;;
7817;SDS011;3954;52.624;9.212;2022-09-16T01:59:14;3.70;;;2.00;;
7817;SDS011;3954;52.624;9.212;2022-09-16T02:01:43;3.83;;;2.30;;
7817;SDS011;3954;52.624;9.212;2022-09-16T02:04:13;5.33;;;2.47;;
7817;SDS011;3954;52.624;9.212;2022-09-16T02:06:41;5.50;;;2.77;;
7817;SDS011;3954;52.624;9.212;2022-09-16T02:09:08;4.57;;;2.63;;
7817;SDS011;3954;52.624;9.212;2022-09-16T02:11:36;3.47;;;2.10;;
7817;SDS011;3954;52.624;9.212;2022-09-16T02:14:04;8.30;;;2.87;;
7817;SDS011;3954;52.624;9.212;2022-09-16T02:16:34;6.03;;;2.60;;
7817;SDS011;3954;52.624;9.212;2022-09-16T02:19:02;6.60;;;2.97;;
7817;SDS011;3954;52.624;9.212;2022-09-16T02:21:32;4.13;;;2.33;;
7817;SDS011;3954;52.624;9.212;2022-09-16T02:23:59;4.57;;;2.73;;
7817;SDS011;3954;52.624;9.212;2022-09-16T02:26:28;4.70;;;2.40;;
7817;SDS011;3954;52.624;9.212;2022-09-16T02:28:54;5.73;;;2.53;;
7817;SDS011;3954;52.624;9.212;2022-09-16T02:31:21;6.03;;;3.00;;
7817;SDS011;3954;52.624;9.212;2022-09-16T02:33:50;4.27;;;2.43;;
7817;SDS011;3954;52.624;9.212;2022-09-16T02:36:18;4.50;;;2.60;;
7817;SDS011;3954;52.624;9.212;2022-09-16T02:38:48;5.63;;;3.00;;
7817;SDS011;3954;52.624;9.212;2022-09-16T02:41:15;4.50;;;2.57;;
7817;SDS011;3954;52.624;9.212;2022-09-16T02:43:41;7.23;;;2.67;;
7817;SDS011;3954;52.624;9.212;2022-09-16T02:46:08;5.33;;;2.50;;
7817;SDS011;3954;52.624;9.212;2022-09-16T02:48:39;5.23;;;2.77;;
7817;SDS011;3954;52.624;9.212;2022-09-16T02:51:10;5.63;;;2.83;;
7817;SDS011;3954;52.624;9.212;2022-09-16T02:53:42;5.30;;;2.47;;
7817;SDS011;3954;52.624;9.212;2022-09-16T02:56:12;6.50;;;2.80;;
7817;SDS011;3954;52.624;9.212;2022-09-16T02:58:39;5.47;;;2.97;;
7817;SDS011;3954;52.624;9.212;2022-09-16T03:01:05;6.50;;;2.63;;
7817;SDS011;3954;52.624;9.212;2022-09-16T03:03:31;6.00;;;2.90;;
7817;SDS011;3954;52.624;9.212;2022-09-16T03:06:12;3.17;;;2.43;;
7817;SDS011;3954;52.624;9.212;2022-09-16T03:08:39;4.90;;;2.70;;
7817;SDS011;3954;52.624;9.212;2022-09-16T03:11:07;3.67;;;2.63;;
7817;SDS011;3954;52.624;9.212;2022-09-16T03:13:36;6.70;;;2.80;;
7817;SDS011;3954;52.624;9.212;2022-09-16T03:16:07;4.50;;;2.73;;
7817;SDS011;3954;52.624;9.212;2022-09-16T03:18:41;5.70;;;2.50;;
7817;SDS011;3954;52.624;9.212;2022-09-16T03:21:14;5.97;;;3.10;;
7817;SDS011;3954;52.624;9.212;2022-09-16T03:23:43;4.23;;;2.80;;
7817;SDS011;3954;52.624;9.212;2022-09-16T03:26:15;5.03;;;2.87;;
7817;SDS011;3954;52.624;9.212;2022-09-16T03:28:48;3.47;;;2.83;;
7817;SDS011;3954;52.624;9.212;2022-09-16T03:31:20;6.40;;;3.60;;
7817;SDS011;3954;52.624;9.212;2022-09-16T03:33:49;5.10;;;2.80;;
7817;SDS011;3954;52.624;9.212;2022-09-16T03:36:18;8.50;;;2.67;;
7817;SDS011;3954;52.624;9.212;2022-09-16T03:38:45;3.77;;;2.43;;
7817;SDS011;3954;52.624;9.212;2022-09-16T03:41:12;6.17;;;2.90;;
7817;SDS011;3954;52.624;9.212;2022-09-16T03:43:38;5.27;;;2.70;;
7817;SDS011;3954;52.624;9.212;2022-09-16T03:46:07;3.40;;;2.60;;
7817;SDS011;3954;52.624;9.212;2022-09-16T03:48:34;3.70;;;2.60;;
7817;SDS011;3954;52.624;9.212;2022-09-16T03:51:00;4.67;;;2.67;;
7817;SDS011;3954;52.624;9.212;2022-09-16T03:53:26;4.97;;;2.90;;
7817;SDS011;3954;52.624;9.212;2022-09-16T03:55:52;6.07;;;2.93;;
7817;SDS011;3954;52.624;9.212;2022-09-16T03:58:18;4.93;;;2.60;;
7817;SDS011;3954;52.624;9.212;2022-09-16T04:00:47;5.10;;;2.87;;
7817;SDS011;3954;52.624;9.212;2022-09-16T04:03:16;4.73;;;2.50;;
7817;SDS011;3954;52.624;9.212;2022-09-16T04:05:42;4.07;;;2.97;;
7817;SDS011;3954;52.624;9.212;2022-09-16T04:08:08;5.10;;;2.70;;
7817;SDS011;3954;52.624;9.212;2022-09-16T04:10:34;5.77;;;2.80;;
7817;SDS011;3954;52.624;9.212;2022-09-16T04:13:00;5.27;;;2.90;;
7817;SDS011;3954;52.624;9.212;2022-09-16T04:15:26;6.57;;;2.70;;
7817;SDS011;3954;52.624;9.212;2022-09-16T04:17:52;5.70;;;2.60;;
7817;SDS011;3954;52.624;9.212;2022-09-16T04:20:21;4.27;;;2.63;;
7817;SDS011;3954;52.624;9.212;2022-09-16T04:22:47;4.83;;;2.70;;
7817;SDS011;3954;52.624;9.212;2022-09-16T04:25:14;4.87;;;3.07;;
7817;SDS011;3954;52.624;9.212;2022-09-16T04:27:40;6.57;;;3.20;;
7817;SDS011;3954;52.624;9.212;2022-09-16T04:30:06;6.03;;;3.43;;
7817;SDS011;3954;52.624;9.212;2022-09-16T04:32:32;4.70;;;3.07;;
7817;SDS011;3954;52.624;9.212;2022-09-16T04:34:58;7.53;;;3.53;;
7817;SDS011;3954;52.624;9.212;2022-09-16T04:37:26;5.93;;;3.10;;
7817;SDS011;3954;52.624;9.212;2022-09-16T04:39:54;5.60;;;3.60;;
7817;SDS011;3954;52.624;9.212;2022-09-16T04:42:20;5.57;;;3.40;;
7817;SDS011;3954;52.624;9.212;2022-09-16T04:44:46;5.83;;;3.20;;
7817;SDS011;3954;52.624;9.212;2022-09-16T04:47:12;4.90;;;3.33;;
7817;SDS011;3954;52.624;9.212;2022-09-16T04:49:38;5.97;;;3.17;;
7817;SDS011;3954;52.624;9.212;2022-09-16T04:52:04;5.00;;;3.20;;
7817;SDS011;3954;52.624;9.212;2022-09-16T04:54:31;5.87;;;3.53;;
7817;SDS011;3954;52.624;9.212;2022-09-16T04:56:57;6.73;;;3.50;;
7817;SDS011;3954;52.624;9.212;2022-09-16T04:59:23;3.23;;;2.93;;
7817;SDS011;3954;52.624;9.212;2022-09-16T05:01:49;8.20;;;3.30;;
7817;SDS011;3954;52.624;9.212;2022-09-16T05:04:15;7.73;;;3.30;;
7817;SDS011;3954;52.624;9.212;2022-09-16T05:06:41;5.17;;;3.20;;
7817;SDS011;3954;52.624;9.212;2022-09-16T05:09:09;4.07;;;3.20;;
7817;SDS011;3954;52.624;9.212;2022-09-16T05:11:37;4.03;;;3.00;;
7817;SDS011;3954;52.624;9.212;2022-09-16T05:14:04;6.33;;;3.13;;
7817;SDS011;3954;52.624;9.212;2022-09-16T05:16:30;3.53;;;2.90;;
7817;SDS011;3954;52.624;9.212;2022-09-16T05:19:00;5.60;;;2.70;;
7817;SDS011;3954;52.624;9.212;2022-09-16T05:21:28;3.33;;;2.97;;
7817;SDS011;3954;52.624;9.212;2022-09-16T05:23:58;4.57;;;2.40;;
7817;SDS011;3954;52.624;9.212;2022-09-16T05:26:25;5.60;;;2.97;;
7817;SDS011;3954;52.624;9.212;2022-09-16T05:28:53;3.40;;;2.80;;
7817;SDS011;3954;52.624;9.212;2022-09-16T05:31:19;4.77;;;2.60;;
7817;SDS011;3954;52.624;9.212;2022-09-16T05:33:46;4.27;;;2.63;;
7817;SDS011;3954;52.624;9.212;2022-09-16T05:36:13;2.90;;;2.30;;
7817;SDS011;3954;52.624;9.212;2022-09-16T05:38:39;3.13;;;2.50;;
7817;SDS011;3954;52.624;9.212;2022-09-16T05:41:05;7.37;;;2.70;;
7817;SDS011;3954;52.624;9.212;2022-09-16T05:43:32;3.93;;;2.30;;
7817;SDS011;3954;52.624;9.212;2022-09-16T05:46:00;4.60;;;2.53;;
7817;SDS011;3954;52.624;9.212;2022-09-16T05:48:26;5.73;;;2.70;;
7817;SDS011;3954;52.624;9.212;2022-09-16T05:50:53;5.13;;;2.50;;
7817;SDS011;3954;52.624;9.212;2022-09-16T05:53:19;3.63;;;2.53;;
7817;SDS011;3954;52.624;9.212;2022-09-16T05:55:53;3.97;;;2.30;;
7817;SDS011;3954;52.624;9.212;2022-09-16T05:58:19;5.30;;;2.60;;
7817;SDS011;3954;52.624;9.212;2022-09-16T06:00:45;4.63;;;2.40;;
7817;SDS011;3954;52.624;9.212;2022-09-16T06:03:12;7.27;;;2.67;;
7817;SDS011;3954;52.624;9.212;2022-09-16T06:05:38;4.43;;;2.40;;
7817;SDS011;3954;52.624;9.212;2022-09-16T06:08:04;5.13;;;2.40;;
7817;SDS011;3954;52.624;9.212;2022-09-16T06:10:30;6.00;;;2.33;;
7817;SDS011;3954;52.624;9.212;2022-09-16T06:12:56;4.10;;;2.27;;
7817;SDS011;3954;52.624;9.212;2022-09-16T06:15:23;4.57;;;2.47;;
7817;SDS011;3954;52.624;9.212;2022-09-16T06:17:49;3.83;;;2.50;;
7817;SDS011;3954;52.624;9.212;2022-09-16T06:20:16;3.70;;;2.30;;
7817;SDS011;3954;52.624;9.212;2022-09-16T06:22:44;6.97;;;2.90;;
7817;SDS011;3954;52.624;9.212;2022-09-16T06:25:10;4.87;;;2.70;;
7817;SDS011;3954;52.624;9.212;2022-09-16T06:27:36;4.60;;;2.13;;
7817;SDS011;3954;52.624;9.212;2022-09-16T06:30:02;6.83;;;2.50;;
7817;SDS011;3954;52.624;9.212;2022-09-16T06:32:29;4.40;;;2.60;;
7817;SDS011;3954;52.624;9.212;2022-09-16T06:34:55;5.23;;;2.30;;
7817;SDS011;3954;52.624;9.212;2022-09-16T06:37:22;5.27;;;2.10;;
7817;SDS011;3954;52.624;9.212;2022-09-16T06:39:48;2.43;;;2.10;;
7817;SDS011;3954;52.624;9.212;2022-09-16T06:42:14;2.50;;;1.70;;
7817;SDS011;3954;52.624;9.212;2022-09-16T06:44:40;5.57;;;1.97;;
7817;SDS011;3954;52.624;9.212;2022-09-16T06:47:06;3.50;;;1.70;;
7817;SDS011;3954;52.624;9.212;2022-09-16T06:49:32;5.20;;;2.03;;
7817;SDS011;3954;52.624;9.212;2022-09-16T06:51:58;6.53;;;2.20;;
7817;SDS011;3954;52.624;9.212;2022-09-16T06:54:25;4.07;;;2.10;;
7817;SDS011;3954;52.624;9.212;2022-09-16T06:56:51;4.37;;;1.70;;
7817;SDS011;3954;52.624;9.212;2022-09-16T06:59:17;2.97;;;1.60;;
7817;SDS011;3954;52.624;9.212;2022-09-16T07:01:43;2.23;;;1.33;;
7817;SDS011;3954;52.624;9.212;2022-09-16T07:04:09;3.63;;;1.67;;
7817;SDS011;3954;52.624;9.212;2022-09-16T07:06:37;3.37;;;1.40;;
7817;SDS011;3954;52.624;9.212;2022-09-16T07:09:03;2.80;;;1.50;;
7817;SDS011;3954;52.624;9.212;2022-09-16T07:11:30;3.20;;;1.57;;
7817;SDS011;3954;52.624;9.212;2022-09-16T07:13:57;2.47;;;1.70;;
7817;SDS011;3954;52.624;9.212;2022-09-16T07:16:24;2.63;;;1.17;;
7817;SDS011;3954;52.624;9.212;2022-09-16T07:18:51;3.90;;;1.50;;
7817;SDS011;3954;52.624;9.212;2022-09-16T07:21:18;3.73;;;1.50;;
7817;SDS011;3954;52.624;9.212;2022-09-16T07:23:45;5.53;;;1.60;;
7817;SDS011;3954;52.624;9.212;2022-09-16T07:26:11;2.57;;;1.40;;
7817;SDS011;3954;52.624;9.212;2022-09-16T07:28:40;3.37;;;1.43;;
7817;SDS011;3954;52.624;9.212;2022-09-16T07:31:07;4.70;;;1.50;;
7817;SDS011;3954;52.624;9.212;2022-09-16T07:33:34;3.57;;;1.67;;
7817;SDS011;3954;52.624;9.212;2022-09-16T07:36:01;3.47;;;1.37;;
7817;SDS011;3954;52.624;9.212;2022-09-16T07:38:28;3.53;;;1.23;;
7817;SDS011;3954;52.624;9.212;2022-09-16T07:40:54;6.67;;;1.47;;
7817;SDS011;3954;52.624;9.212;2022-09-16T07:43:20;4.80;;;1.47;;
7817;SDS011;3954;52.624;9.212;2022-09-16T07:45:53;2.77;;;1.30;;
7817;SDS011;3954;52.624;9.212;2022-09-16T07:48:20;7.13;;;1.40;;
7817;SDS011;3954;52.624;9.212;2022-09-16T07:50:52;3.63;;;1.57;;
7817;SDS011;3954;52.624;9.212;2022-09-16T07:53:18;2.57;;;1.20;;
7817;SDS011;3954;52.624;9.212;2022-09-16T07:55:44;2.13;;;1.37;;
7817;SDS011;3954;52.624;9.212;2022-09-16T07:58:10;4.97;;;1.50;;
7817;SDS011;3954;52.624;9.212;2022-09-16T08:00:36;4.33;;;1.40;;
7817;SDS011;3954;52.624;9.212;2022-09-16T08:03:04;5.93;;;1.40;;
7817;SDS011;3954;52.624;9.212;2022-09-16T08:05:30;3.87;;;2.07;;
7817;SDS011;3954;52.624;9.212;2022-09-16T08:07:56;4.27;;;2.00;;
7817;SDS011;3954;52.624;9.212;2022-09-16T08:10:22;3.37;;;1.40;;
7817;SDS011;3954;52.624;9.212;2022-09-16T08:12:48;4.93;;;1.70;;
7817;SDS011;3954;52.624;9.212;2022-09-16T08:15:15;6.03;;;1.60;;
7817;SDS011;3954;52.624;9.212;2022-09-16T08:17:41;5.83;;;1.50;;
7817;SDS011;3954;52.624;9.212;2022-09-16T08:20:09;4.40;;;1.47;;
7817;SDS011;3954;52.624;9.212;2022-09-16T08:22:34;4.13;;;1.73;;
7817;SDS011;3954;52.624;9.212;2022-09-16T08:25:00;5.63;;;1.80;;
7817;SDS011;3954;52.624;9.212;2022-09-16T08:27:27;3.80;;;1.60;;
7817;SDS011;3954;52.624;9.212;2022-09-16T08:29:53;4.63;;;1.43;;
7817;SDS011;3954;52.624;9.212;2022-09-16T08:32:19;4.30;;;1.63;;
7817;SDS011;3954;52.624;9.212;2022-09-16T08:34:44;5.17;;;1.73;;
7817;SDS011;3954;52.624;9.212;2022-09-16T08:37:12;5.47;;;1.53;;
7817;SDS011;3954;52.624;9.212;2022-09-16T08:39:38;2.60;;;1.47;;
7817;SDS011;3954;52.624;9.212;2022-09-16T08:42:11;5.77;;;1.70;;
7817;SDS011;3954;52.624;9.212;2022-09-16T08:44:45;4.37;;;1.33;;
7817;SDS011;3954;52.624;9.212;2022-09-16T08:47:17;3.23;;;1.47;;
7817;SDS011;3954;52.624;9.212;2022-09-16T08:49:47;5.23;;;1.43;;
7817;SDS011;3954;52.624;9.212;2022-09-16T08:52:17;2.37;;;0.93;;
7817;SDS011;3954;52.624;9.212;2022-09-16T08:54:48;4.47;;;1.50;;
7817;SDS011;3954;52.624;9.212;2022-09-16T08:57:16;6.73;;;1.57;;
7817;SDS011;3954;52.624;9.212;2022-09-16T08:59:45;4.33;;;1.20;;
7817;SDS011;3954;52.624;9.212;2022-09-16T09:02:18;6.40;;;1.47;;
7817;SDS011;3954;52.624;9.212;2022-09-16T09:04:46;2.87;;;1.20;;
7817;SDS011;3954;52.624;9.212;2022-09-16T09:07:15;4.60;;;1.40;;
7817;SDS011;3954;52.624;9.212;2022-09-16T09:09:47;3.93;;;1.27;;
7817;SDS011;3954;52.624;9.212;2022-09-16T09:12:17;4.00;;;1.33;;
7817;SDS011;3954;52.624;9.212;2022-09-16T09:14:50;4.57;;;1.50;;
7817;SDS011;3954;52.624;9.212;2022-09-16T09:17:21;6.40;;;1.80;;
7817;SDS011;3954;52.624;9.212;2022-09-16T09:19:52;4.17;;;1.60;;
7817;SDS011;3954;52.624;9.212;2022-09-16T09:22:22;4.63;;;1.33;;
7817;SDS011;3954;52.624;9.212;2022-09-16T09:24:59;5.30;;;1.50;;
7817;SDS011;3954;52.624;9.212;2022-09-16T09:27:26;4.03;;;1.87;;
7817;SDS011;3954;52.624;9.212;2022-09-16T09:29:59;3.17;;;1.67;;
7817;SDS011;3954;52.624;9.212;2022-09-16T09:32:28;5.83;;;1.97;;
7817;SDS011;3954;52.624;9.212;2022-09-16T09:35:01;4.90;;;1.67;;
7817;SDS011;3954;52.624;9.212;2022-09-16T09:37:37;7.33;;;1.60;;
7817;SDS011;3954;52.624;9.212;2022-09-16T09:40:10;6.03;;;1.70;;
7817;SDS011;3954;52.624;9.212;2022-09-16T09:42:38;3.53;;;1.53;;
7817;SDS011;3954;52.624;9.212;2022-09-16T09:45:11;3.53;;;1.30;;
7817;SDS011;3954;52.624;9.212;2022-09-16T09:47:41;8.57;;;1.97;;
7817;SDS011;3954;52.624;9.212;2022-09-16T09:50:11;6.47;;;1.70;;
7817;SDS011;3954;52.624;9.212;2022-09-16T09:52:39;4.70;;;1.73;;
7817;SDS011;3954;52.624;9.212;2022-09-16T09:55:13;6.60;;;1.80;;
7817;SDS011;3954;52.624;9.212;2022-09-16T09:57:43;5.30;;;2.00;;
7817;SDS011;3954;52.624;9.212;2022-09-16T10:00:14;6.30;;;2.17;;
7817;SDS011;3954;52.624;9.212;2022-09-16T10:02:41;4.83;;;1.70;;
7817;SDS011;3954;52.624;9.212;2022-09-16T10:05:09;3.93;;;1.77;;
7817;SDS011;3954;52.624;9.212;2022-09-16T10:07:40;5.93;;;1.87;;
7817;SDS011;3954;52.624;9.212;2022-09-16T10:10:11;6.60;;;1.83;;
7817;SDS011;3954;52.624;9.212;2022-09-16T10:12:40;4.07;;;1.67;;
7817;SDS011;3954;52.624;9.212;2022-09-16T10:15:16;9.27;;;2.00;;
7817;SDS011;3954;52.624;9.212;2022-09-16T10:17:46;4.53;;;1.50;;
7817;SDS011;3954;52.624;9.212;2022-09-16T10:20:20;3.80;;;1.60;;
7817;SDS011;3954;52.624;9.212;2022-09-16T10:22:52;8.63;;;1.80;;
7817;SDS011;3954;52.624;9.212;2022-09-16T10:25:20;6.27;;;1.90;;
7817;SDS011;3954;52.624;9.212;2022-09-16T10:27:54;5.17;;;1.50;;
7817;SDS011;3954;52.624;9.212;2022-09-16T10:30:20;5.33;;;1.80;;
7817;SDS011;3954;52.624;9.212;2022-09-16T10:32:47;4.53;;;1.53;;
7817;SDS011;3954;52.624;9.212;2022-09-16T10:35:16;3.60;;;1.60;;
7817;SDS011;3954;52.624;9.212;2022-09-16T10:37:44;5.53;;;1.77;;
7817;SDS011;3954;52.624;9.212;2022-09-16T10:40:14;8.83;;;1.80;;
7817;SDS011;3954;52.624;9.212;2022-09-16T10:42:44;8.80;;;2.33;;
7817;SDS011;3954;52.624;9.212;2022-09-16T10:45:14;6.00;;;1.67;;
7817;SDS011;3954;52.624;9.212;2022-09-16T10:47:45;4.80;;;1.73;;
7817;SDS011;3954;52.624;9.212;2022-09-16T10:50:14;3.70;;;1.50;;
7817;SDS011;3954;52.624;9.212;2022-09-16T10:52:42;7.80;;;2.00;;
7817;SDS011;3954;52.624;9.212;2022-09-16T10:55:09;6.43;;;1.90;;
7817;SDS011;3954;52.624;9.212;2022-09-16T10:57:42;6.93;;;1.80;;
7817;SDS011;3954;52.624;9.212;2022-09-16T11:00:09;3.40;;;1.40;;
7817;SDS011;3954;52.624;9.212;2022-09-16T11:05:29;6.70;;;1.77;;
7817;SDS011;3954;52.624;9.212;2022-09-16T11:07:58;6.27;;;1.90;;
7817;SDS011;3954;52.624;9.212;2022-09-16T11:10:30;4.23;;;1.80;;
7817;SDS011;3954;52.624;9.212;2022-09-16T11:13:04;11.20;;;1.90;;
7817;SDS011;3954;52.624;9.212;2022-09-16T11:15:38;4.83;;;1.60;;
7817;SDS011;3954;52.624;9.212;2022-09-16T11:18:10;3.20;;;1.60;;
7817;SDS011;3954;52.624;9.212;2022-09-16T11:23:29;7.83;;;2.00;;
7817;SDS011;3954;52.624;9.212;2022-09-16T11:25:58;5.00;;;1.37;;
7817;SDS011;3954;52.624;9.212;2022-09-16T11:28:36;6.53;;;1.73;;
7817;SDS011;3954;52.624;9.212;2022-09-16T11:31:06;10.47;;;1.77;;
7817;SDS011;3954;52.624;9.212;2022-09-16T11:33:40;4.93;;;1.50;;
7817;SDS011;3954;52.624;9.212;2022-09-16T11:36:22;6.30;;;1.97;;
7817;SDS011;3954;52.624;9.212;2022-09-16T11:38:58;5.23;;;1.83;;
7817;SDS011;3954;52.624;9.212;2022-09-16T11:41:29;6.00;;;1.87;;
7817;SDS011;3954;52.624;9.212;2022-09-16T11:44:09;5.80;;;1.50;;
7817;SDS011;3954;52.624;9.212;2022-09-16T11:46:41;6.93;;;1.70;;
7817;SDS011;3954;52.624;9.212;2022-09-16T11:49:17;3.97;;;1.70;;
7817;SDS011;3954;52.624;9.212;2022-09-16T11:51:53;5.63;;;1.70;;
7817;SDS011;3954;52.624;9.212;2022-09-16T11:54:31;3.80;;;1.27;;
7817;SDS011;3954;52.624;9.212;2022-09-16T11:57:00;7.53;;;1.20;;
7817;SDS011;3954;52.624;9.212;2022-09-16T11:59:28;2.93;;;1.00;;
7817;SDS011;3954;52.624;9.212;2022-09-16T12:01:55;5.03;;;1.20;;
7817;SDS011;3954;52.624;9.212;2022-09-16T12:04:24;3.57;;;0.70;;
7817;SDS011;3954;52.624;9.212;2022-09-16T12:06:53;1.73;;;1.03;;
7817;SDS011;3954;52.624;9.212;2022-09-16T12:09:23;2.03;;;1.13;;
7817;SDS011;3954;52.624;9.212;2022-09-16T12:11:54;1.00;;;0.70;;
7817;SDS011;3954;52.624;9.212;2022-09-16T12:14:27;1.53;;;0.97;;
7817;SDS011;3954;52.624;9.212;2022-09-16T12:16:56;1.30;;;0.80;;
7817;SDS011;3954;52.624;9.212;2022-09-16T12:19:26;1.50;;;0.90;;
7817;SDS011;3954;52.624;9.212;2022-09-16T12:21:54;2.77;;;1.10;;
7817;SDS011;3954;52.624;9.212;2022-09-16T12:24:23;2.70;;;1.40;;
7817;SDS011;3954;52.624;9.212;2022-09-16T12:26:54;3.90;;;1.40;;
7817;SDS011;3954;52.624;9.212;2022-09-16T12:29:22;4.60;;;1.37;;
7817;SDS011;3954;52.624;9.212;2022-09-16T12:31:52;2.43;;;1.13;;
7817;SDS011;3954;52.624;9.212;2022-09-16T12:34:21;3.70;;;1.20;;
7817;SDS011;3954;52.624;9.212;2022-09-16T12:36:57;2.27;;;1.30;;
7817;SDS011;3954;52.624;9.212;2022-09-16T12:39:24;4.57;;;1.37;;
7817;SDS011;3954;52.624;9.212;2022-09-16T12:41:57;2.30;;;1.20;;
7817;SDS011;3954;52.624;9.212;2022-09-16T12:44:35;2.53;;;1.40;;
7817;SDS011;3954;52.624;9.212;2022-09-16T12:49:55;2.20;;;1.40;;
7817;SDS011;3954;52.624;9.212;2022-09-16T12:52:31;5.57;;;1.50;;
7817;SDS011;3954;52.624;9.212;2022-09-16T12:57:52;2.80;;;1.57;;
7817;SDS011;3954;52.624;9.212;2022-09-16T13:00:22;2.33;;;1.20;;
7817;SDS011;3954;52.624;9.212;2022-09-16T13:02:51;6.60;;;1.93;;
7817;SDS011;3954;52.624;9.212;2022-09-16T13:05:20;2.90;;;1.70;;
7817;SDS011;3954;52.624;9.212;2022-09-16T13:07:47;7.00;;;1.63;;
7817;SDS011;3954;52.624;9.212;2022-09-16T13:10:16;5.40;;;1.70;;
7817;SDS011;3954;52.624;9.212;2022-09-16T13:12:47;5.47;;;2.00;;
7817;SDS011;3954;52.624;9.212;2022-09-16T13:15:22;7.10;;;1.80;;
7817;SDS011;3954;52.624;9.212;2022-09-16T13:17:48;11.70;;;1.97;;
7817;SDS011;3954;52.624;9.212;2022-09-16T13:20:17;8.30;;;1.90;;
7817;SDS011;3954;52.624;9.212;2022-09-16T13:22:45;5.67;;;2.10;;
7817;SDS011;3954;52.624;9.212;2022-09-16T13:25:17;3.67;;;1.40;;
7817;SDS011;3954;52.624;9.212;2022-09-16T13:27:51;6.50;;;1.70;;
7817;SDS011;3954;52.624;9.212;2022-09-16T13:30:31;4.70;;;1.60;;
7817;SDS011;3954;52.624;9.212;2022-09-16T13:32:59;4.50;;;1.63;;
7817;SDS011;3954;52.624;9.212;2022-09-16T13:35:38;7.70;;;2.33;;
7817;SDS011;3954;52.624;9.212;2022-09-16T13:38:19;10.33;;;2.00;;
7817;SDS011;3954;52.624;9.212;2022-09-16T13:40:51;8.37;;;1.93;;
7817;SDS011;3954;52.624;9.212;2022-09-16T13:43:18;4.93;;;1.43;;
7817;SDS011;3954;52.624;9.212;2022-09-16T13:46:00;7.43;;;1.30;;
7817;SDS011;3954;52.624;9.212;2022-09-16T13:48:26;8.37;;;1.80;;
7817;SDS011;3954;52.624;9.212;2022-09-16T13:50:55;7.40;;;1.43;;
7817;SDS011;3954;52.624;9.212;2022-09-16T13:53:23;9.13;;;1.77;;
7817;SDS011;3954;52.624;9.212;2022-09-16T13:55:51;4.47;;;1.40;;
7817;SDS011;3954;52.624;9.212;2022-09-16T13:58:20;4.77;;;1.53;;
7817;SDS011;3954;52.624;9.212;2022-09-16T14:00:52;4.57;;;1.70;;
7817;SDS011;3954;52.624;9.212;2022-09-16T14:08:52;4.03;;;1.63;;
7817;SDS011;3954;52.624;9.212;2022-09-16T14:11:23;4.60;;;1.60;;
7817;SDS011;3954;52.624;9.212;2022-09-16T14:13:52;5.40;;;1.57;;
7817;SDS011;3954;52.624;9.212;2022-09-16T14:16:20;5.33;;;1.83;;
7817;SDS011;3954;52.624;9.212;2022-09-16T14:18:51;4.37;;;1.53;;
7817;SDS011;3954;52.624;9.212;2022-09-16T14:21:18;3.57;;;1.43;;
7817;SDS011;3954;52.624;9.212;2022-09-16T14:23:44;5.30;;;1.80;;
7817;SDS011;3954;52.624;9.212;2022-09-16T14:26:13;7.00;;;1.53;;
7817;SDS011;3954;52.624;9.212;2022-09-16T14:28:39;4.63;;;1.50;;
7817;SDS011;3954;52.624;9.212;2022-09-16T14:31:06;7.07;;;1.73;;
7817;SDS011;3954;52.624;9.212;2022-09-16T14:33:34;9.33;;;2.23;;
7817;SDS011;3954;52.624;9.212;2022-09-16T14:36:06;6.53;;;1.80;;
7817;SDS011;3954;52.624;9.212;2022-09-16T14:38:34;6.30;;;1.57;;
7817;SDS011;3954;52.624;9.212;2022-09-16T14:41:00;6.10;;;2.10;;
7817;SDS011;3954;52.624;9.212;2022-09-16T14:43:28;6.50;;;2.63;;
7817;SDS011;3954;52.624;9.212;2022-09-16T14:45:55;3.83;;;1.80;;
7817;SDS011;3954;52.624;9.212;2022-09-16T14:48:24;6.83;;;1.80;;
7817;SDS011;3954;52.624;9.212;2022-09-16T14:50:51;6.63;;;2.00;;
7817;SDS011;3954;52.624;9.212;2022-09-16T14:53:24;7.37;;;2.07;;
7817;SDS011;3954;52.624;9.212;2022-09-16T14:55:50;5.23;;;2.13;;
7817;SDS011;3954;52.624;9.212;2022-09-16T14:58:16;3.87;;;1.70;;
7817;SDS011;3954;52.624;9.212;2022-09-16T15:00:46;4.50;;;1.93;;
7817;SDS011;3954;52.624;9.212;2022-09-16T15:03:13;7.23;;;1.60;;
7817;SDS011;3954;52.624;9.212;2022-09-16T15:05:42;6.27;;;2.10;;
7817;SDS011;3954;52.624;9.212;2022-09-16T15:08:12;3.80;;;1.60;;
7817;SDS011;3954;52.624;9.212;2022-09-16T15:10:40;6.93;;;1.97;;
7817;SDS011;3954;52.624;9.212;2022-09-16T15:13:10;6.50;;;1.80;;
7817;SDS011;3954;52.624;9.212;2022-09-16T15:15:37;5.23;;;2.10;;
7817;SDS011;3954;52.624;9.212;2022-09-16T15:18:11;4.83;;;1.60;;
7817;SDS011;3954;52.624;9.212;2022-09-16T15:20:48;8.67;;;1.90;;
7817;SDS011;3954;52.624;9.212;2022-09-16T15:23:17;5.77;;;1.80;;
7817;SDS011;3954;52.624;9.212;2022-09-16T15:25:49;6.83;;;2.07;;
7817;SDS011;3954;52.624;9.212;2022-09-16T15:28:16;4.80;;;1.50;;
7817;SDS011;3954;52.624;9.212;2022-09-16T15:30:43;5.30;;;1.93;;
7817;SDS011;3954;52.624;9.212;2022-09-16T15:33:22;5.37;;;1.90;;
7817;SDS011;3954;52.624;9.212;2022-09-16T15:35:50;8.83;;;2.63;;
7817;SDS011;3954;52.624;9.212;2022-09-16T15:38:20;11.03;;;2.30;;
7817;SDS011;3954;52.624;9.212;2022-09-16T15:40:47;7.73;;;2.20;;
7817;SDS011;3954;52.624;9.212;2022-09-16T15:43:16;6.00;;;1.90;;
7817;SDS011;3954;52.624;9.212;2022-09-16T15:45:43;8.50;;;2.70;;
7817;SDS011;3954;52.624;9.212;2022-09-16T15:48:14;8.57;;;2.73;;